createdAt,value
2018-07-08T00:00:36.874Z,18.20
2018-07-08T00:03:07.908Z,18.10
2018-07-08T00:05:38.566Z,18.10
2018-07-08T00:08:09.280Z,18.10
2018-07-08T00:10:42.066Z,18.00
2018-07-08T00:13:12.739Z,18.00
2018-07-08T00:15:43.418Z,17.90
2018-07-08T00:18:14.134Z,17.90
2018-07-08T00:20:45.158Z,17.80
2018-07-08T00:23:15.826Z,17.80
2018-07-08T00:25:46.496Z,17.70
2018-07-08T00:28:17.149Z,17.70
2018-07-08T00:30:48.178Z,17.60
2018-07-08T00:33:18.862Z,17.60
2018-07-08T00:35:49.873Z,17.50
2018-07-08T00:38:21.190Z,17.50
2018-07-08T00:40:51.993Z,17.40
2018-07-08T00:43:22.980Z,17.40
2018-07-08T00:45:53.659Z,17.30
2018-07-08T00:48:31.088Z,17.30
2018-07-08T00:51:02.446Z,17.30
2018-07-08T00:53:33.082Z,17.20
2018-07-08T00:56:03.778Z,17.20
2018-07-08T00:58:34.462Z,17.10
2018-07-08T01:01:05.151Z,17.10
2018-07-08T01:03:35.791Z,17.00
2018-07-08T01:06:06.498Z,17.00
2018-07-08T01:08:37.202Z,17.00
2018-07-08T01:11:08.064Z,17.00
2018-07-08T01:13:38.702Z,16.90
2018-07-08T01:16:09.395Z,16.80
2018-07-08T01:18:40.058Z,16.80
2018-07-08T01:21:10.722Z,16.80
2018-07-08T01:23:41.402Z,16.80
2018-07-08T01:26:13.178Z,16.70
2018-07-08T01:28:43.855Z,16.60
2018-07-08T01:31:14.492Z,16.60
2018-07-08T01:33:45.170Z,16.60
2018-07-08T01:36:15.817Z,16.50
2018-07-08T01:38:46.478Z,16.40
2018-07-08T01:41:17.127Z,16.40
2018-07-08T01:43:47.827Z,16.40
2018-07-08T01:46:18.814Z,16.30
2018-07-08T01:48:49.643Z,16.30
2018-07-08T01:51:20.692Z,16.30
2018-07-08T01:53:51.401Z,16.20
2018-07-08T01:56:22.335Z,16.20
2018-07-08T01:58:53.382Z,16.20
2018-07-08T02:01:24.070Z,16.10
2018-07-08T02:03:54.738Z,16.10
2018-07-08T02:06:25.454Z,16.00
2018-07-08T02:08:56.126Z,16.00
2018-07-08T02:11:27.154Z,16.00
2018-07-08T02:13:57.786Z,16.00
2018-07-08T02:16:28.894Z,16.00
2018-07-08T02:18:59.619Z,15.90
2018-07-08T02:21:30.291Z,15.90
2018-07-08T02:24:00.962Z,15.80
2018-07-08T02:26:31.679Z,15.80
2018-07-08T02:29:02.350Z,15.80
2018-07-08T02:31:33.071Z,15.70
2018-07-08T02:34:03.772Z,15.70
2018-07-08T02:36:34.522Z,15.70
2018-07-08T02:39:06.287Z,15.60
2018-07-08T02:41:37.000Z,15.60
2018-07-08T02:44:07.631Z,15.60
2018-07-08T02:46:38.563Z,15.50
2018-07-08T02:49:09.288Z,15.50
2018-07-08T02:51:40.193Z,15.40
2018-07-08T02:54:10.850Z,15.40
2018-07-08T02:56:41.499Z,15.30
2018-07-08T02:59:12.519Z,15.30
2018-07-08T03:01:43.163Z,15.30
2018-07-08T03:04:13.849Z,15.20
2018-07-08T03:06:44.504Z,15.20
2018-07-08T03:09:15.327Z,15.20
2018-07-08T03:11:45.946Z,15.20
2018-07-08T03:14:16.603Z,15.20
2018-07-08T03:16:47.259Z,15.20
2018-07-08T03:19:17.927Z,15.20
2018-07-08T03:21:48.679Z,15.10
2018-07-08T03:24:19.550Z,15.10
2018-07-08T03:26:50.178Z,15.00
2018-07-08T03:29:20.835Z,15.00
2018-07-08T03:31:51.470Z,14.90
2018-07-08T03:34:22.491Z,14.80
2018-07-08T03:36:53.122Z,14.80
2018-07-08T03:39:23.798Z,14.80
2018-07-08T03:41:54.442Z,14.70
2018-07-08T03:44:25.105Z,14.70
2018-07-08T03:46:55.766Z,14.70
2018-07-08T03:49:26.418Z,14.60
2018-07-08T03:51:57.078Z,14.60
2018-07-08T03:54:30.242Z,14.50
2018-07-08T03:57:00.882Z,14.50
2018-07-08T03:59:30.391Z,14.50
2018-07-08T04:02:01.060Z,14.40
2018-07-08T04:04:31.822Z,14.40
2018-07-08T04:07:02.821Z,14.40
2018-07-08T04:12:10.587Z,14.30
2018-07-08T04:14:41.458Z,14.30
2018-07-08T04:17:12.122Z,14.40
2018-07-08T04:19:42.790Z,14.40
2018-07-08T04:22:13.426Z,14.30
2018-07-08T04:24:44.092Z,14.40
2018-07-08T04:27:14.736Z,14.40
2018-07-08T04:29:45.423Z,14.40
2018-07-08T04:32:16.058Z,14.50
2018-07-08T04:34:46.726Z,14.50
2018-07-08T04:37:17.378Z,14.50
2018-07-08T04:39:48.058Z,14.60
2018-07-08T04:42:18.758Z,14.60
2018-07-08T04:44:49.428Z,14.60
2018-07-08T04:47:20.451Z,14.60
2018-07-08T04:49:51.356Z,14.70
2018-07-08T04:52:22.037Z,14.70
2018-07-08T04:54:52.698Z,14.80
2018-07-08T04:57:23.366Z,14.90
2018-07-08T04:59:54.015Z,15.00
2018-07-08T05:02:24.681Z,15.10
2018-07-08T05:04:55.358Z,15.10
2018-07-08T05:07:26.035Z,15.20
2018-07-08T05:09:56.910Z,15.30
2018-07-08T05:12:27.576Z,15.30
2018-07-08T05:14:58.222Z,15.40
2018-07-08T05:17:28.937Z,15.50
2018-07-08T05:19:59.562Z,15.60
2018-07-08T05:22:30.246Z,15.70
2018-07-08T05:25:00.939Z,15.80
2018-07-08T05:27:31.594Z,15.90
2018-07-08T05:30:02.243Z,16.00
2018-07-08T05:32:32.919Z,16.10
2018-07-08T05:35:03.962Z,16.30
2018-07-08T05:37:34.641Z,16.40
2018-07-08T05:40:05.306Z,16.50
2018-07-08T05:42:35.947Z,16.60
2018-07-08T05:45:06.691Z,16.60
2018-07-08T05:47:37.337Z,16.70
2018-07-08T05:50:08.237Z,16.80
2018-07-08T05:52:39.066Z,16.80
2018-07-08T05:55:10.091Z,16.90
2018-07-08T06:00:11.070Z,17.00
2018-07-08T06:02:42.402Z,17.00
2018-07-08T06:05:13.319Z,17.10
2018-07-08T06:07:43.987Z,17.10
2018-07-08T06:10:14.676Z,17.20
2018-07-08T06:12:45.335Z,17.20
2018-07-08T06:15:16.002Z,17.20
2018-07-08T06:17:46.905Z,17.30
2018-07-08T06:20:17.568Z,17.40
2018-07-08T06:22:48.255Z,17.40
2018-07-08T06:25:18.924Z,17.50
2018-07-08T06:27:49.589Z,17.60
2018-07-08T06:30:21.174Z,17.70
2018-07-08T06:32:51.868Z,17.80
2018-07-08T06:35:22.547Z,17.90
2018-07-08T06:37:53.410Z,18.00
2018-07-08T06:40:24.442Z,18.10
2018-07-08T06:42:55.128Z,18.10
2018-07-08T06:45:25.818Z,18.20
2018-07-08T06:47:56.662Z,18.30
2018-07-08T06:50:27.506Z,18.40
2018-07-08T06:52:58.226Z,18.40
2018-07-08T06:55:28.866Z,18.50
2018-07-08T06:57:59.593Z,18.50
2018-07-08T07:00:30.391Z,18.50
2018-07-08T07:03:01.066Z,18.50
2018-07-08T07:05:31.731Z,18.50
2018-07-08T07:08:02.768Z,18.60
2018-07-08T07:10:33.436Z,18.60
2018-07-08T07:13:04.123Z,18.70
2018-07-08T07:15:34.778Z,18.80
2018-07-08T07:18:05.719Z,18.80
2018-07-08T07:20:36.715Z,18.80
2018-07-08T07:23:07.448Z,18.90
2018-07-08T07:25:38.219Z,18.90
2018-07-08T07:28:08.902Z,19.00
2018-07-08T07:30:39.538Z,19.00
2018-07-08T07:33:10.538Z,19.00
2018-07-08T07:35:41.216Z,19.10
2018-07-08T07:38:11.870Z,19.10
2018-07-08T07:40:42.510Z,19.10
2018-07-08T07:43:13.183Z,19.10
2018-07-08T07:45:43.810Z,19.10
2018-07-08T07:48:14.831Z,19.10
2018-07-08T07:50:45.467Z,19.10
2018-07-08T07:53:16.143Z,19.10
2018-07-08T07:55:46.794Z,19.20
2018-07-08T07:58:17.456Z,19.20
2018-07-08T08:00:48.101Z,19.20
2018-07-08T08:03:18.762Z,19.30
2018-07-08T08:05:49.428Z,19.30
2018-07-08T08:08:20.152Z,19.30
2018-07-08T08:10:51.050Z,19.40
2018-07-08T08:13:21.826Z,19.40
2018-07-08T08:15:52.496Z,19.50
2018-07-08T08:18:23.158Z,19.50
2018-07-08T08:20:53.809Z,19.50
2018-07-08T08:23:24.462Z,19.60
2018-07-08T08:25:55.087Z,19.60
2018-07-08T08:28:25.743Z,19.60
2018-07-08T08:30:56.389Z,19.70
2018-07-08T08:33:27.540Z,19.70
2018-07-08T08:35:58.175Z,19.70
2018-07-08T08:38:28.853Z,19.80
2018-07-08T08:40:59.486Z,19.80
2018-07-08T08:43:30.180Z,19.90
2018-07-08T08:46:00.973Z,19.90
2018-07-08T08:48:31.730Z,20.00
2018-07-08T08:51:02.377Z,20.00
2018-07-08T08:53:33.070Z,20.00
2018-07-08T08:56:09.346Z,20.10
2018-07-08T08:58:40.047Z,20.10
2018-07-08T09:01:10.693Z,20.20
2018-07-08T09:03:41.412Z,20.20
2018-07-08T09:06:12.318Z,20.20
2018-07-08T09:08:42.971Z,20.20
2018-07-08T09:11:14.335Z,20.30
2018-07-08T09:13:45.334Z,20.30
2018-07-08T09:16:15.983Z,20.30
2018-07-08T09:18:46.655Z,20.40
2018-07-08T09:21:17.326Z,20.50
2018-07-08T09:23:48.035Z,20.60
2018-07-08T09:26:18.836Z,20.60
2018-07-08T09:28:50.643Z,20.60
2018-07-08T09:31:21.350Z,20.60
2018-07-08T09:33:52.782Z,20.70
2018-07-08T09:36:23.582Z,20.70
2018-07-08T09:38:54.394Z,20.80
2018-07-08T09:41:25.115Z,20.90
2018-07-08T09:43:56.239Z,20.90
2018-07-08T09:46:26.899Z,21.00
2018-07-08T09:48:57.554Z,21.00
2018-07-08T09:51:28.245Z,21.00
2018-07-08T09:53:58.755Z,21.10
2018-07-08T09:56:29.411Z,21.20
2018-07-08T09:59:00.423Z,21.20
2018-07-08T10:01:35.302Z,21.30
2018-07-08T10:04:06.238Z,21.30
2018-07-08T10:06:36.988Z,21.20
2018-07-08T10:09:10.371Z,21.30
2018-07-08T10:11:40.759Z,21.40
2018-07-08T10:14:12.725Z,21.40
2018-07-08T10:16:43.593Z,21.50
2018-07-08T10:19:15.427Z,21.60
2018-07-08T10:21:46.021Z,21.60
2018-07-08T10:24:16.890Z,21.70
2018-07-08T10:26:56.404Z,21.70
2018-07-08T10:29:26.751Z,21.80
2018-07-08T10:31:57.115Z,21.80
2018-07-08T10:34:27.458Z,21.90
2018-07-08T10:36:57.832Z,21.90
2018-07-08T10:39:28.215Z,22.00
2018-07-08T10:41:58.594Z,22.10
2018-07-08T10:44:28.968Z,22.10
2018-07-08T10:46:59.691Z,22.10
2018-07-08T10:49:30.051Z,22.30
2018-07-08T10:52:00.435Z,22.40
2018-07-08T10:57:00.870Z,22.50
2018-07-08T10:59:31.895Z,22.50
2018-07-08T11:02:02.787Z,22.60
2018-07-08T11:04:33.150Z,22.70
2018-07-08T11:07:03.900Z,22.70
2018-07-08T11:09:34.263Z,22.80
2018-07-08T11:12:04.703Z,22.90
2018-07-08T11:14:35.071Z,22.90
2018-07-08T11:17:05.882Z,23.00
2018-07-08T11:19:36.294Z,23.00
2018-07-08T11:22:06.704Z,23.10
2018-07-08T11:24:37.110Z,23.20
2018-07-08T11:27:07.587Z,23.30
2018-07-08T11:29:37.967Z,23.40
2018-07-08T11:32:08.546Z,23.40
2018-07-08T11:34:38.926Z,23.50
2018-07-08T11:37:09.639Z,23.60
2018-07-08T11:39:40.151Z,23.70
2018-07-08T11:42:10.522Z,23.80
2018-07-08T11:44:40.919Z,23.90
2018-07-08T11:47:11.270Z,23.90
2018-07-08T11:49:41.654Z,24.10
2018-07-08T11:52:12.003Z,24.10
2018-07-08T11:54:42.734Z,24.20
2018-07-08T11:57:13.075Z,24.30
2018-07-08T11:59:43.479Z,24.40
2018-07-08T12:02:13.835Z,24.40
2018-07-08T12:04:44.216Z,24.50
2018-07-08T12:09:44.575Z,24.60
2018-07-08T12:12:14.922Z,24.50
2018-07-08T12:14:45.303Z,24.60
2018-07-08T12:17:15.655Z,24.60
2018-07-08T12:19:46.536Z,24.70
2018-07-08T12:22:16.916Z,24.80
2018-07-08T12:24:47.774Z,24.90
2018-07-08T12:27:18.126Z,25.00
2018-07-08T12:29:48.789Z,25.10
2018-07-08T12:32:19.338Z,25.10
2018-07-08T12:34:49.917Z,25.10
2018-07-08T12:37:20.270Z,25.20
2018-07-08T12:39:50.679Z,25.20
2018-07-08T12:42:21.191Z,25.30
2018-07-08T12:44:51.652Z,25.40
2018-07-08T12:47:22.126Z,25.50
2018-07-08T12:49:52.523Z,25.60
2018-07-08T12:52:23.510Z,25.60
2018-07-08T12:54:54.207Z,25.60
2018-07-08T12:57:24.951Z,25.70
2018-07-08T12:59:55.292Z,25.80
2018-07-08T13:02:25.702Z,25.80
2018-07-08T13:04:56.398Z,25.90
2018-07-08T13:07:27.135Z,25.90
2018-07-08T13:09:57.511Z,25.90
2018-07-08T13:12:28.274Z,25.90
2018-07-08T13:14:58.591Z,25.90
2018-07-08T13:17:28.970Z,26.00
2018-07-08T13:19:59.360Z,26.10
2018-07-08T13:22:29.945Z,26.10
2018-07-08T13:25:00.643Z,26.20
2018-07-08T13:27:31.226Z,26.20
2018-07-08T13:30:01.631Z,26.30
2018-07-08T13:32:32.016Z,26.30
2018-07-08T13:35:02.583Z,26.40
2018-07-08T13:37:32.982Z,26.40
2018-07-08T13:40:03.375Z,26.40
2018-07-08T13:42:33.755Z,26.40
2018-07-08T13:45:04.538Z,26.40
2018-07-08T13:47:35.242Z,26.50
2018-07-08T13:50:05.790Z,26.50
2018-07-08T13:52:36.143Z,26.50
2018-07-08T13:55:06.550Z,26.50
2018-07-08T13:57:37.007Z,26.60
2018-07-08T14:00:08.004Z,26.60
2018-07-08T14:02:38.369Z,26.70
2018-07-08T14:05:08.771Z,26.80
2018-07-08T14:07:39.171Z,26.80
2018-07-08T14:10:09.566Z,26.90
2018-07-08T14:12:39.942Z,26.90
2018-07-08T14:15:10.323Z,26.90
2018-07-08T14:17:40.771Z,26.80
2018-07-08T14:20:11.225Z,26.80
2018-07-08T14:22:42.178Z,26.80
2018-07-08T14:25:12.585Z,26.80
2018-07-08T14:27:42.962Z,26.80
2018-07-08T14:30:13.355Z,26.80
2018-07-08T14:32:44.051Z,26.80
2018-07-08T14:35:14.443Z,26.80
2018-07-08T14:37:45.144Z,26.80
2018-07-08T14:40:15.922Z,26.80
2018-07-08T14:42:46.277Z,26.90
2018-07-08T14:45:16.732Z,26.90
2018-07-08T14:47:47.158Z,26.80
2018-07-08T14:50:17.551Z,26.70
2018-07-08T14:52:47.915Z,26.70
2018-07-08T14:55:18.499Z,26.70
2018-07-08T14:57:48.894Z,26.60
2018-07-08T15:00:19.287Z,26.60
2018-07-08T15:02:50.007Z,26.60
2018-07-08T15:05:20.558Z,26.70
2018-07-08T15:07:50.926Z,26.60
2018-07-08T15:10:21.351Z,26.60
2018-07-08T15:12:51.759Z,26.60
2018-07-08T15:15:22.170Z,26.60
2018-07-08T15:17:52.714Z,26.50
2018-07-08T15:20:23.170Z,26.50
2018-07-08T15:22:53.788Z,26.50
2018-07-08T15:25:24.171Z,26.50
2018-07-08T15:27:55.282Z,26.40
2018-07-08T15:30:26.038Z,26.40
2018-07-08T15:32:56.428Z,26.40
2018-07-08T15:35:26.887Z,26.40
2018-07-08T15:37:57.438Z,26.40
2018-07-08T15:40:27.902Z,26.40
2018-07-08T15:42:58.294Z,26.40
2018-07-08T15:45:29.034Z,26.40
2018-07-08T15:47:59.467Z,26.40
2018-07-08T15:50:29.813Z,26.40
2018-07-08T15:53:00.190Z,26.30
2018-07-08T15:55:30.575Z,26.30
2018-07-08T15:58:00.946Z,26.40
2018-07-08T16:00:31.334Z,26.30
2018-07-08T16:03:02.083Z,26.40
2018-07-08T16:05:32.463Z,26.30
2018-07-08T16:08:03.239Z,26.30
2018-07-08T16:10:33.674Z,26.30
2018-07-08T16:13:04.073Z,26.30
2018-07-08T16:15:34.779Z,26.30
2018-07-08T16:18:05.247Z,26.30
2018-07-08T16:20:36.190Z,26.30
2018-07-08T16:23:06.566Z,26.30
2018-07-08T16:25:38.152Z,26.30
2018-07-08T16:28:08.502Z,26.30
2018-07-08T16:30:38.960Z,26.40
2018-07-08T16:33:09.269Z,26.30
2018-07-08T16:35:45.243Z,26.30
2018-07-08T16:38:15.622Z,26.30
2018-07-08T16:40:46.070Z,26.30
2018-07-08T16:43:16.474Z,26.20
2018-07-08T16:45:47.320Z,26.20
2018-07-08T16:48:17.815Z,26.10
2018-07-08T16:50:48.627Z,26.10
2018-07-08T16:53:19.159Z,26.10
2018-07-08T16:55:49.615Z,26.10
2018-07-08T16:58:20.030Z,26.10
2018-07-08T17:00:50.747Z,26.10
2018-07-08T17:03:21.119Z,26.00
2018-07-08T17:05:51.559Z,26.00
2018-07-08T17:08:22.005Z,26.00
2018-07-08T17:10:52.582Z,26.00
2018-07-08T17:13:22.982Z,26.00
2018-07-08T17:15:53.686Z,26.00
2018-07-08T17:18:24.582Z,26.00
2018-07-08T17:20:54.943Z,26.00
2018-07-08T17:23:25.344Z,25.90
2018-07-08T17:25:56.254Z,25.90
2018-07-08T17:28:26.654Z,25.90
2018-07-08T17:30:57.040Z,25.80
2018-07-08T17:33:27.786Z,25.80
2018-07-08T17:35:58.327Z,25.70
2018-07-08T17:38:28.766Z,25.70
2018-07-08T17:40:59.519Z,25.70
2018-07-08T17:43:30.087Z,25.60
2018-07-08T17:46:00.499Z,25.60
2018-07-08T17:48:31.475Z,25.50
2018-07-08T17:51:01.888Z,25.50
2018-07-08T17:53:32.636Z,25.50
2018-07-08T17:56:03.479Z,25.40
2018-07-08T17:58:33.862Z,25.40
2018-07-08T18:01:04.230Z,25.40
2018-07-08T18:03:34.956Z,25.40
2018-07-08T18:06:05.327Z,25.40
2018-07-08T18:08:35.835Z,25.30
2018-07-08T18:11:06.350Z,25.30
2018-07-08T18:13:36.770Z,25.20
2018-07-08T18:16:07.460Z,25.20
2018-07-08T18:18:37.865Z,25.20
2018-07-08T18:21:08.587Z,25.20
2018-07-08T18:23:39.008Z,25.10
2018-07-08T18:26:09.363Z,25.10
2018-07-08T18:28:40.453Z,25.10
2018-07-08T18:31:10.770Z,25.00
2018-07-08T18:33:41.394Z,25.00
2018-07-08T18:36:11.758Z,25.00
2018-07-08T18:38:42.127Z,24.90
2018-07-08T18:41:12.487Z,24.80
2018-07-08T18:43:43.373Z,24.80
2018-07-08T18:46:14.166Z,24.80
2018-07-08T18:48:44.691Z,24.80
2018-07-08T18:51:15.068Z,24.70
2018-07-08T18:56:49.958Z,24.60
2018-07-08T18:59:20.362Z,24.50
2018-07-08T19:01:50.853Z,24.50
2018-07-08T19:04:21.175Z,24.40
2018-07-08T19:06:51.560Z,24.30
2018-07-08T19:09:22.258Z,24.30
2018-07-08T19:11:53.093Z,24.20
2018-07-08T19:14:23.430Z,24.20
2018-07-08T19:16:54.433Z,24.10
2018-07-08T19:19:24.762Z,24.10
2018-07-08T19:21:55.170Z,24.00
2018-07-08T19:24:25.570Z,23.90
2018-07-08T19:26:56.494Z,23.90
2018-07-08T19:29:26.947Z,23.80
2018-07-08T19:31:57.430Z,23.80
2018-07-08T19:34:27.982Z,23.70
2018-07-08T19:36:58.524Z,23.70
2018-07-08T19:39:28.963Z,23.60
2018-07-08T19:41:59.723Z,23.50
2018-07-08T19:44:30.151Z,23.40
2018-07-08T19:47:00.619Z,23.30
2018-07-08T19:49:35.302Z,23.30
2018-07-08T19:52:09.000Z,23.20
2018-07-08T19:54:43.168Z,23.10
2018-07-08T19:57:18.521Z,23.00
2018-07-08T19:59:56.571Z,23.00
2018-07-08T20:02:32.177Z,22.80
2018-07-08T20:05:07.540Z,22.80
2018-07-08T20:07:42.890Z,22.70
2018-07-08T20:10:17.984Z,22.50
2018-07-08T20:12:55.824Z,22.50
2018-07-08T20:15:35.223Z,22.40
2018-07-08T20:18:09.613Z,22.30
2018-07-08T20:20:43.348Z,22.10
2018-07-08T20:23:18.707Z,22.00
2018-07-08T20:25:53.298Z,21.90
2018-07-08T20:28:33.223Z,21.90
2018-07-08T20:31:07.532Z,21.80
2018-07-08T20:33:42.107Z,21.70
2018-07-08T20:36:17.371Z,21.60
2018-07-08T20:38:56.193Z,21.50
2018-07-08T20:41:30.222Z,21.50
2018-07-08T20:44:06.480Z,21.40
2018-07-08T20:46:42.461Z,21.30
2018-07-08T20:49:23.914Z,21.20
2018-07-08T20:51:59.977Z,21.10
2018-07-08T20:54:35.261Z,21.00
2018-07-08T20:57:10.118Z,21.00
2018-07-08T20:59:50.671Z,20.90
2018-07-08T21:02:21.395Z,20.90
2018-07-08T21:04:51.812Z,20.80
2018-07-08T21:07:22.584Z,20.70
2018-07-08T21:09:53.447Z,20.60
2018-07-08T21:12:23.845Z,20.60
2018-07-08T21:14:54.756Z,20.60
2018-07-08T21:17:25.231Z,20.50
2018-07-08T21:19:55.931Z,20.40
2018-07-08T21:22:26.368Z,20.30
2018-07-08T21:24:56.787Z,20.20
2018-07-08T21:27:27.280Z,20.20
2018-07-08T21:29:58.192Z,20.10
2018-07-08T21:32:29.917Z,20.10
2018-07-08T21:35:00.476Z,20.00
2018-07-08T21:37:30.960Z,20.00
2018-07-08T21:40:01.984Z,19.90
2018-07-08T21:42:33.048Z,19.80
2018-07-08T21:45:03.817Z,19.80
2018-07-08T21:47:34.544Z,19.70
2018-07-08T21:50:05.303Z,19.60
2018-07-08T21:52:36.404Z,19.60
2018-07-08T21:55:07.276Z,19.60
2018-07-08T21:57:38.046Z,19.50
2018-07-08T22:00:09.060Z,19.40
2018-07-08T22:02:40.049Z,19.40
2018-07-08T22:05:11.100Z,19.30
2018-07-08T22:07:47.201Z,19.20
2018-07-08T22:10:17.904Z,19.20
2018-07-08T22:12:48.708Z,19.10
2018-07-08T22:15:19.532Z,19.10
2018-07-08T22:17:50.417Z,19.00
2018-07-08T22:20:21.317Z,19.00
2018-07-08T22:22:52.899Z,18.90
2018-07-08T22:25:24.909Z,18.80
2018-07-08T22:27:57.323Z,18.80
2018-07-08T22:30:29.258Z,18.70
2018-07-08T22:33:01.271Z,18.70
2018-07-08T22:35:32.222Z,18.70
2018-07-08T22:38:02.968Z,18.70
2018-07-08T22:40:33.828Z,18.70
2018-07-08T22:43:04.659Z,18.60
2018-07-08T22:45:35.757Z,18.60
2018-07-08T22:48:06.689Z,18.60
2018-07-08T22:50:37.408Z,18.60
2018-07-08T22:53:08.137Z,18.60
2018-07-08T22:55:38.832Z,18.50
2018-07-08T22:58:09.547Z,18.50
2018-07-08T23:00:51.487Z,18.50
2018-07-08T23:03:42.519Z,18.40
2018-07-08T23:06:13.265Z,18.40
2018-07-08T23:08:43.968Z,18.30
2018-07-08T23:11:14.683Z,18.30
2018-07-08T23:13:45.930Z,18.20
2018-07-08T23:18:47.476Z,18.20
2018-07-08T23:21:18.560Z,18.10
2018-07-08T23:23:49.588Z,18.10
2018-07-08T23:26:20.283Z,18.10
2018-07-08T23:28:51.004Z,18.00
2018-07-08T23:31:21.712Z,17.90
2018-07-08T23:33:52.420Z,17.90
2018-07-08T23:36:23.116Z,17.80
2018-07-08T23:38:53.840Z,17.80
2018-07-08T23:41:24.848Z,17.80
2018-07-08T23:43:55.538Z,17.70
2018-07-08T23:46:26.560Z,17.70
2018-07-08T23:49:00.542Z,17.70
2018-07-08T23:51:31.586Z,17.70
2018-07-08T23:54:02.276Z,17.70
2018-07-08T23:56:32.963Z,17.70
2018-07-08T23:59:03.832Z,17.70
